THY1ED LTAY-LTFM
Flight info
| Callsign | THY1ED |
|---|---|
| Flight time | N/A |
| Altitude | 32000 |
| Route | ATGIT1N/05 ATGIT UT30 OTSIX UM855 SISPI |
| Aircraft | A319/M-SDE3FGHIRWY/LB1 |
Departure
| Time | 2026-04-30 15:05 |
|---|---|
| Airport | Çardak Airport (LTAY) |
Arrival
| Time | N/A |
|---|---|
| Airport | İstanbul Airport (LTFM) |
| Time | Latitude | Longitude | Altitude | Speed | Heading |
|---|---|---|---|---|---|
| 2026-04-30 14:41 | 37.77486 | 29.68981 | 2799 ft | 0 kts | 124° |
| 2026-04-30 14:54 | 37.77500 | 29.68954 | 2795 ft | 4 kts | 122° |
| 2026-04-30 14:55 | 37.77518 | 29.68894 | 2791 ft | 3 kts | 59° |
| 2026-04-30 14:55 | 37.77516 | 29.68889 | 2793 ft | 0 kts | 52° |
| 2026-04-30 14:58 | 37.77529 | 29.68909 | 2796 ft | 4 kts | 48° |
| 2026-04-30 14:59 | 37.77609 | 29.68881 | 2800 ft | 9 kts | 329° |
| 2026-04-30 15:00 | 37.77848 | 29.68706 | 2797 ft | 12 kts | 348° |
| 2026-04-30 15:00 | 37.77980 | 29.68918 | 2800 ft | 21 kts | 58° |
| 2026-04-30 15:01 | 37.78129 | 29.69228 | 2795 ft | 28 kts | 58° |
| 2026-04-30 15:01 | 37.78229 | 29.69435 | 2795 ft | 27 kts | 59° |
| 2026-04-30 15:01 | 37.78476 | 29.69950 | 2792 ft | 32 kts | 59° |
| 2026-04-30 15:02 | 37.78593 | 29.70197 | 2786 ft | 34 kts | 59° |
| 2026-04-30 15:02 | 37.78717 | 29.70454 | 2785 ft | 35 kts | 58° |
| 2026-04-30 15:03 | 37.79063 | 29.71177 | 2783 ft | 31 kts | 58° |
| 2026-04-30 15:03 | 37.79196 | 29.71457 | 2782 ft | 14 kts | 58° |
| 2026-04-30 15:04 | 37.79249 | 29.71563 | 2782 ft | 1 kts | 190° |
| 2026-04-30 15:04 | 37.79096 | 29.71248 | 2781 ft | 61 kts | 239° |
| 2026-04-30 15:05 | 37.77723 | 29.68354 | 3500 ft | 154 kts | 241° |
| 2026-04-30 15:06 | 37.76366 | 29.65509 | 4362 ft | 184 kts | 242° |
| 2026-04-30 15:06 | 37.75141 | 29.62947 | 5046 ft | 215 kts | 240° |
| 2026-04-30 15:07 | 37.74991 | 29.59110 | 6187 ft | 247 kts | 288° |
| 2026-04-30 15:07 | 37.76468 | 29.55073 | 7823 ft | 266 kts | 311° |
| 2026-04-30 15:08 | 37.80064 | 29.53621 | 9305 ft | 297 kts | 11° |
| 2026-04-30 15:08 | 37.86177 | 29.56748 | 10789 ft | 348 kts | 22° |
| 2026-04-30 15:09 | 37.90741 | 29.59209 | 12125 ft | 361 kts | 22° |
| 2026-04-30 15:09 | 37.96194 | 29.62112 | 13874 ft | 370 kts | 21° |
| 2026-04-30 15:10 | 38.00202 | 29.64240 | 15017 ft | 374 kts | 21° |
| 2026-04-30 15:11 | 38.09917 | 29.69415 | 17688 ft | 387 kts | 20° |
| 2026-04-30 15:11 | 38.14921 | 29.72091 | 18908 ft | 393 kts | 20° |
| 2026-04-30 15:12 | 38.22690 | 29.75540 | 20579 ft | 399 kts | 7° |
| 2026-04-30 15:13 | 38.28194 | 29.76871 | 21693 ft | 406 kts | 7° |
| 2026-04-30 15:14 | 38.39471 | 29.79629 | 23691 ft | 419 kts | 7° |
| 2026-04-30 15:14 | 38.48094 | 29.81750 | 24948 ft | 426 kts | 7° |
| 2026-04-30 15:16 | 38.62850 | 29.85393 | 27044 ft | 438 kts | 7° |
| 2026-04-30 15:17 | 38.74909 | 29.88369 | 28618 ft | 447 kts | 7° |
| 2026-04-30 15:18 | 38.90396 | 29.90740 | 29977 ft | 448 kts | 354° |
| 2026-04-30 15:19 | 38.99688 | 29.90387 | 29971 ft | 447 kts | 354° |